TAM672 SKBO-SELT
Flight info
| Callsign | TAM672 |
|---|---|
| Flight time | 1h 10m |
| Altitude | 34000 |
| Route | VAPOM4R OREGA DCT BOKAN/N0466F350 UP533 QIT |
| Aircraft | A321/M-SDE3FGHIRWY/LB1 |
Departure
| Time | 2026-05-05 15:11 |
|---|---|
| Airport | El Dorado International Airport (SKBO) |
Arrival
| Time | 2026-05-05 16:21 |
|---|---|
| Airport | Cotopaxi International Airport (SELT) |
| Time | Latitude | Longitude | Altitude | Speed | Heading |
|---|---|---|---|---|---|
| 2026-05-05 14:35 | 4.69805 | -74.13870 | 8366 ft | 0 kts | 217° |
| 2026-05-05 14:54 | 4.69806 | -74.13870 | 8366 ft | 1 kts | 217° |
| 2026-05-05 14:54 | 4.69824 | -74.13857 | 8366 ft | 4 kts | 217° |
| 2026-05-05 14:55 | 4.69842 | -74.13843 | 8366 ft | 4 kts | 213° |
| 2026-05-05 14:55 | 4.69864 | -74.13835 | 8366 ft | 4 kts | 164° |
| 2026-05-05 14:55 | 4.69885 | -74.13849 | 8366 ft | 4 kts | 129° |
| 2026-05-05 14:55 | 4.69894 | -74.13859 | 8366 ft | 3 kts | 127° |
| 2026-05-05 14:56 | 4.69878 | -74.13838 | 8366 ft | 4 kts | 127° |
| 2026-05-05 14:56 | 4.69861 | -74.13816 | 8366 ft | 4 kts | 127° |
| 2026-05-05 14:56 | 4.69858 | -74.13811 | 8366 ft | 0 kts | 127° |
| 2026-05-05 15:00 | 4.69856 | -74.13809 | 8366 ft | 2 kts | 127° |
| 2026-05-05 15:01 | 4.69842 | -74.13790 | 8366 ft | 5 kts | 127° |
| 2026-05-05 15:01 | 4.69837 | -74.13748 | 8366 ft | 8 kts | 66° |
| 2026-05-05 15:01 | 4.69887 | -74.13742 | 8366 ft | 9 kts | 340° |
| 2026-05-05 15:01 | 4.69936 | -74.13798 | 8366 ft | 13 kts | 304° |
| 2026-05-05 15:02 | 4.69997 | -74.13876 | 8366 ft | 16 kts | 308° |
| 2026-05-05 15:02 | 4.70072 | -74.13972 | 8366 ft | 19 kts | 308° |
| 2026-05-05 15:02 | 4.70156 | -74.14086 | 8366 ft | 22 kts | 306° |
| 2026-05-05 15:02 | 4.70249 | -74.14208 | 8366 ft | 19 kts | 308° |
| 2026-05-05 15:03 | 4.70330 | -74.14316 | 8366 ft | 16 kts | 307° |
| 2026-05-05 15:03 | 4.70385 | -74.14417 | 8366 ft | 18 kts | 262° |
| 2026-05-05 15:03 | 4.70291 | -74.14503 | 8366 ft | 20 kts | 217° |
| 2026-05-05 15:03 | 4.70174 | -74.14593 | 8366 ft | 22 kts | 217° |
| 2026-05-05 15:04 | 4.70046 | -74.14689 | 8366 ft | 24 kts | 217° |
| 2026-05-05 15:04 | 4.69921 | -74.14782 | 8366 ft | 20 kts | 216° |
| 2026-05-05 15:04 | 4.69822 | -74.14858 | 8366 ft | 17 kts | 221° |
| 2026-05-05 15:04 | 4.69848 | -74.14966 | 8366 ft | 19 kts | 309° |
| 2026-05-05 15:05 | 4.70033 | -74.15210 | 8366 ft | 24 kts | 308° |
| 2026-05-05 15:05 | 4.70140 | -74.15354 | 8365 ft | 27 kts | 307° |
| 2026-05-05 15:05 | 4.70255 | -74.15507 | 8365 ft | 29 kts | 307° |
| 2026-05-05 15:06 | 4.70381 | -74.15674 | 8365 ft | 31 kts | 308° |
| 2026-05-05 15:06 | 4.70516 | -74.15850 | 8365 ft | 32 kts | 307° |
| 2026-05-05 15:06 | 4.70654 | -74.16032 | 8366 ft | 33 kts | 307° |
| 2026-05-05 15:06 | 4.70797 | -74.16221 | 8366 ft | 35 kts | 307° |
| 2026-05-05 15:07 | 4.70945 | -74.16416 | 8366 ft | 36 kts | 307° |
| 2026-05-05 15:07 | 4.71072 | -74.16585 | 8366 ft | 14 kts | 308° |
| 2026-05-05 15:07 | 4.71116 | -74.16643 | 8366 ft | 12 kts | 307° |
| 2026-05-05 15:07 | 4.71174 | -74.16719 | 8366 ft | 15 kts | 307° |
| 2026-05-05 15:08 | 4.71242 | -74.16813 | 8366 ft | 18 kts | 295° |
| 2026-05-05 15:08 | 4.71170 | -74.16894 | 8364 ft | 19 kts | 182° |
| 2026-05-05 15:08 | 4.71058 | -74.16883 | 8363 ft | 10 kts | 172° |
| 2026-05-05 15:08 | 4.71001 | -74.16850 | 8363 ft | 0 kts | 130° |
| 2026-05-05 15:09 | 4.71000 | -74.16849 | 8363 ft | 3 kts | 130° |
| 2026-05-05 15:09 | 4.70883 | -74.16697 | 8363 ft | 59 kts | 127° |
| 2026-05-05 15:10 | 4.70517 | -74.16218 | 8366 ft | 115 kts | 128° |
| 2026-05-05 15:10 | 4.69919 | -74.15438 | 8366 ft | 164 kts | 127° |
| 2026-05-05 15:10 | 4.69147 | -74.14406 | 8379 ft | 203 kts | 129° |
| 2026-05-05 15:10 | 4.68264 | -74.13264 | 8874 ft | 208 kts | 129° |
| 2026-05-05 15:11 | 4.67363 | -74.12122 | 9568 ft | 206 kts | 129° |
| 2026-05-05 15:11 | 4.66279 | -74.11262 | 10143 ft | 199 kts | 161° |
| 2026-05-05 15:11 | 4.64972 | -74.11347 | 10668 ft | 193 kts | 209° |
| 2026-05-05 15:11 | 4.63977 | -74.12333 | 10843 ft | 210 kts | 230° |
| 2026-05-05 15:12 | 4.63115 | -74.13556 | 11111 ft | 218 kts | 240° |
| 2026-05-05 15:12 | 4.62593 | -74.14999 | 11449 ft | 224 kts | 257° |
| 2026-05-05 15:12 | 4.62482 | -74.16579 | 11718 ft | 233 kts | 266° |
| 2026-05-05 15:12 | 4.62405 | -74.18226 | 11987 ft | 239 kts | 261° |
| 2026-05-05 15:13 | 4.62217 | -74.19907 | 12252 ft | 245 kts | 257° |
| 2026-05-05 15:13 | 4.61845 | -74.21587 | 12513 ft | 249 kts | 254° |
| 2026-05-05 15:13 | 4.61454 | -74.23290 | 12831 ft | 252 kts | 254° |
| 2026-05-05 15:13 | 4.61062 | -74.24990 | 13075 ft | 258 kts | 253° |
| 2026-05-05 15:14 | 4.60628 | -74.26800 | 13068 ft | 274 kts | 253° |
| 2026-05-05 15:14 | 4.60143 | -74.28714 | 13004 ft | 293 kts | 251° |
| 2026-05-05 15:14 | 4.59337 | -74.30612 | 12974 ft | 301 kts | 238° |
| 2026-05-05 15:14 | 4.58228 | -74.32483 | 12979 ft | 321 kts | 234° |
| 2026-05-05 15:15 | 4.56988 | -74.34437 | 12969 ft | 343 kts | 235° |
| 2026-05-05 15:15 | 4.55700 | -74.36534 | 12930 ft | 364 kts | 237° |
| 2026-05-05 15:15 | 4.54403 | -74.38791 | 12893 ft | 382 kts | 239° |
| 2026-05-05 15:15 | 4.53117 | -74.41178 | 12989 ft | 396 kts | 240° |
| 2026-05-05 15:16 | 4.51837 | -74.43663 | 13216 ft | 405 kts | 241° |
| 2026-05-05 15:16 | 4.50578 | -74.46169 | 13641 ft | 410 kts | 242° |
| 2026-05-05 15:16 | 4.49296 | -74.48737 | 14102 ft | 414 kts | 241° |
| 2026-05-05 15:16 | 4.47998 | -74.51324 | 14451 ft | 417 kts | 241° |
| 2026-05-05 15:17 | 4.46683 | -74.53927 | 14858 ft | 420 kts | 241° |
| 2026-05-05 15:17 | 4.45349 | -74.56544 | 15253 ft | 423 kts | 241° |
| 2026-05-05 15:17 | 4.44000 | -74.59177 | 15660 ft | 426 kts | 241° |
| 2026-05-05 15:17 | 4.42637 | -74.61826 | 16078 ft | 429 kts | 241° |
| 2026-05-05 15:18 | 4.41261 | -74.64497 | 16457 ft | 432 kts | 241° |
| 2026-05-05 15:18 | 4.39878 | -74.67183 | 16840 ft | 435 kts | 242° |
| 2026-05-05 15:18 | 4.38489 | -74.69889 | 17233 ft | 438 kts | 242° |
| 2026-05-05 15:18 | 4.37095 | -74.72602 | 17607 ft | 440 kts | 242° |
| 2026-05-05 15:19 | 4.35688 | -74.75339 | 17972 ft | 443 kts | 242° |
| 2026-05-05 15:19 | 4.34271 | -74.78092 | 18325 ft | 445 kts | 242° |
| 2026-05-05 15:19 | 4.32847 | -74.80857 | 18638 ft | 448 kts | 242° |
| 2026-05-05 15:19 | 4.31415 | -74.83637 | 18953 ft | 450 kts | 242° |
| 2026-05-05 15:20 | 4.29974 | -74.86432 | 19278 ft | 452 kts | 242° |
| 2026-05-05 15:20 | 4.28529 | -74.89237 | 19577 ft | 454 kts | 242° |
| 2026-05-05 15:20 | 4.27092 | -74.92022 | 19897 ft | 456 kts | 242° |
| 2026-05-05 15:20 | 4.25630 | -74.94855 | 20212 ft | 458 kts | 242° |
| 2026-05-05 15:21 | 4.24169 | -74.97693 | 20530 ft | 460 kts | 242° |
| 2026-05-05 15:21 | 4.22697 | -75.00546 | 20910 ft | 462 kts | 242° |
| 2026-05-05 15:21 | 4.21212 | -75.03412 | 21202 ft | 464 kts | 241° |
| 2026-05-05 15:21 | 4.19464 | -75.06127 | 21470 ft | 465 kts | 232° |
| 2026-05-05 15:22 | 4.17518 | -75.08730 | 21737 ft | 468 kts | 232° |
| 2026-05-05 15:22 | 4.15559 | -75.11343 | 22011 ft | 470 kts | 232° |
| 2026-05-05 15:22 | 4.13591 | -75.13964 | 22275 ft | 472 kts | 232° |
| 2026-05-05 15:22 | 4.11617 | -75.16595 | 22513 ft | 474 kts | 232° |
| 2026-05-05 15:23 | 4.09636 | -75.19240 | 22766 ft | 475 kts | 232° |
| 2026-05-05 15:23 | 4.07652 | -75.21895 | 23051 ft | 477 kts | 232° |
| 2026-05-05 15:23 | 4.05657 | -75.24564 | 23309 ft | 479 kts | 232° |
| 2026-05-05 15:23 | 4.03653 | -75.27246 | 23532 ft | 482 kts | 232° |
| 2026-05-05 15:24 | 4.01637 | -75.29940 | 23733 ft | 484 kts | 232° |
| 2026-05-05 15:24 | 3.99611 | -75.32645 | 23949 ft | 486 kts | 232° |
| 2026-05-05 15:24 | 3.97578 | -75.35356 | 24147 ft | 488 kts | 232° |
| 2026-05-05 15:24 | 3.95537 | -75.38078 | 24409 ft | 489 kts | 232° |
| 2026-05-05 15:25 | 3.93522 | -75.40770 | 24625 ft | 490 kts | 232° |
| 2026-05-05 15:25 | 3.91475 | -75.43503 | 24845 ft | 492 kts | 232° |
| 2026-05-05 15:25 | 3.89419 | -75.46247 | 25065 ft | 493 kts | 232° |
| 2026-05-05 15:25 | 3.87281 | -75.48924 | 25262 ft | 493 kts | 226° |
| 2026-05-05 15:26 | 3.84788 | -75.51282 | 25528 ft | 493 kts | 217° |
| 2026-05-05 15:26 | 3.82081 | -75.53394 | 25718 ft | 494 kts | 216° |
| 2026-05-05 15:26 | 3.79358 | -75.55511 | 25951 ft | 495 kts | 217° |
| 2026-05-05 15:26 | 3.76637 | -75.57636 | 26177 ft | 497 kts | 217° |
| 2026-05-05 15:27 | 3.73916 | -75.59767 | 26412 ft | 497 kts | 217° |
| 2026-05-05 15:27 | 3.71193 | -75.61901 | 26732 ft | 496 kts | 217° |
| 2026-05-05 15:27 | 3.68477 | -75.64028 | 27036 ft | 495 kts | 217° |
| 2026-05-05 15:27 | 3.65767 | -75.66150 | 27381 ft | 494 kts | 217° |
| 2026-05-05 15:28 | 3.63054 | -75.68268 | 27686 ft | 494 kts | 217° |
| 2026-05-05 15:28 | 3.60350 | -75.70378 | 28000 ft | 493 kts | 217° |
| 2026-05-05 15:28 | 3.57646 | -75.72490 | 28321 ft | 492 kts | 217° |
| 2026-05-05 15:28 | 3.54981 | -75.74570 | 28609 ft | 491 kts | 217° |
| 2026-05-05 15:29 | 3.52287 | -75.76673 | 28924 ft | 490 kts | 217° |
| 2026-05-05 15:29 | 3.49600 | -75.78768 | 29290 ft | 489 kts | 217° |
| 2026-05-05 15:29 | 3.46916 | -75.80861 | 29605 ft | 488 kts | 217° |
| 2026-05-05 15:29 | 3.44244 | -75.82948 | 29964 ft | 487 kts | 217° |
| 2026-05-05 15:30 | 3.41579 | -75.85030 | 30293 ft | 486 kts | 216° |
| 2026-05-05 15:30 | 3.38913 | -75.87112 | 30541 ft | 485 kts | 217° |
| 2026-05-05 15:30 | 3.36258 | -75.89185 | 30785 ft | 485 kts | 217° |
| 2026-05-05 15:30 | 3.33602 | -75.91260 | 31037 ft | 485 kts | 217° |
| 2026-05-05 15:31 | 3.30942 | -75.93341 | 31286 ft | 484 kts | 217° |
| 2026-05-05 15:31 | 3.28287 | -75.95419 | 31489 ft | 485 kts | 217° |
| 2026-05-05 15:31 | 3.25628 | -75.97496 | 31749 ft | 484 kts | 217° |
| 2026-05-05 15:31 | 3.22970 | -75.99569 | 31997 ft | 484 kts | 217° |
| 2026-05-05 15:32 | 3.20313 | -76.01637 | 32243 ft | 484 kts | 217° |
| 2026-05-05 15:32 | 3.17655 | -76.03706 | 32482 ft | 484 kts | 217° |
| 2026-05-05 15:32 | 3.14996 | -76.05774 | 32730 ft | 484 kts | 217° |
| 2026-05-05 15:32 | 3.12368 | -76.07820 | 32953 ft | 484 kts | 217° |
| 2026-05-05 15:33 | 3.09711 | -76.09890 | 33130 ft | 485 kts | 217° |
| 2026-05-05 15:33 | 3.04378 | -76.14051 | 33172 ft | 486 kts | 217° |
| 2026-05-05 15:34 | 2.99045 | -76.18218 | 33175 ft | 485 kts | 217° |
| 2026-05-05 15:34 | 2.93723 | -76.22378 | 33134 ft | 487 kts | 217° |
| 2026-05-05 15:35 | 2.88344 | -76.26571 | 33137 ft | 490 kts | 217° |
| 2026-05-05 15:35 | 2.82968 | -76.30761 | 33132 ft | 490 kts | 217° |
| 2026-05-05 15:36 | 2.77614 | -76.34937 | 33155 ft | 491 kts | 217° |
| 2026-05-05 15:36 | 2.72223 | -76.39138 | 33125 ft | 491 kts | 217° |
| 2026-05-05 15:37 | 2.66823 | -76.43342 | 33171 ft | 492 kts | 217° |
| 2026-05-05 15:37 | 2.61426 | -76.47551 | 33198 ft | 492 kts | 217° |
| 2026-05-05 15:38 | 2.56030 | -76.51760 | 33216 ft | 492 kts | 217° |
| 2026-05-05 15:38 | 2.50676 | -76.55939 | 33252 ft | 490 kts | 217° |
| 2026-05-05 15:39 | 2.45296 | -76.60122 | 33251 ft | 489 kts | 217° |
| 2026-05-05 15:39 | 2.39925 | -76.64301 | 33249 ft | 488 kts | 217° |
| 2026-05-05 15:40 | 2.34559 | -76.68480 | 33226 ft | 488 kts | 217° |
| 2026-05-05 15:40 | 2.29207 | -76.72653 | 33191 ft | 488 kts | 217° |
| 2026-05-05 15:41 | 2.23854 | -76.76819 | 33156 ft | 488 kts | 217° |
| 2026-05-05 15:41 | 2.18496 | -76.80993 | 33078 ft | 489 kts | 217° |
| 2026-05-05 15:42 | 2.13117 | -76.85180 | 33059 ft | 491 kts | 217° |
| 2026-05-05 15:42 | 2.07721 | -76.89375 | 33093 ft | 491 kts | 217° |
| 2026-05-05 15:43 | 2.02335 | -76.93569 | 33102 ft | 490 kts | 217° |
| 2026-05-05 15:43 | 1.96959 | -76.97762 | 33073 ft | 490 kts | 217° |
| 2026-05-05 15:44 | 1.91617 | -77.01919 | 33087 ft | 489 kts | 217° |
| 2026-05-05 15:44 | 1.86241 | -77.06101 | 33087 ft | 489 kts | 217° |
| 2026-05-05 15:45 | 1.80871 | -77.10284 | 33052 ft | 489 kts | 217° |
| 2026-05-05 15:45 | 1.75497 | -77.14468 | 33069 ft | 489 kts | 217° |
| 2026-05-05 15:46 | 1.70126 | -77.18647 | 33069 ft | 489 kts | 217° |
| 2026-05-05 15:46 | 1.64751 | -77.22830 | 33071 ft | 489 kts | 217° |
| 2026-05-05 15:47 | 1.59412 | -77.26971 | 33075 ft | 489 kts | 217° |
| 2026-05-05 15:47 | 1.54037 | -77.31145 | 33073 ft | 489 kts | 217° |
| 2026-05-05 15:48 | 1.48666 | -77.35323 | 33104 ft | 489 kts | 217° |
| 2026-05-05 15:48 | 1.44165 | -77.38827 | 33091 ft | 489 kts | 217° |
| 2026-05-05 15:49 | 1.38829 | -77.42982 | 33218 ft | 489 kts | 217° |
| 2026-05-05 15:49 | 1.33458 | -77.47158 | 33203 ft | 489 kts | 217° |
| 2026-05-05 15:50 | 1.28085 | -77.51335 | 33177 ft | 489 kts | 217° |
| 2026-05-05 15:50 | 1.22713 | -77.55515 | 33138 ft | 489 kts | 217° |
| 2026-05-05 15:51 | 1.17343 | -77.59682 | 33210 ft | 489 kts | 217° |
| 2026-05-05 15:51 | 1.11972 | -77.63856 | 33290 ft | 489 kts | 217° |
| 2026-05-05 15:52 | 1.06588 | -77.68038 | 33338 ft | 491 kts | 217° |
| 2026-05-05 15:52 | 1.01225 | -77.72217 | 33404 ft | 492 kts | 217° |
| 2026-05-05 15:53 | 0.95822 | -77.76419 | 33439 ft | 493 kts | 217° |
| 2026-05-05 15:53 | 0.90415 | -77.80619 | 33513 ft | 493 kts | 216° |
| 2026-05-05 15:53 | 0.87704 | -77.82724 | 33189 ft | 493 kts | 217° |
| 2026-05-05 15:54 | 0.84994 | -77.84830 | 33196 ft | 493 kts | 217° |
| 2026-05-05 15:54 | 0.79568 | -77.89043 | 33204 ft | 493 kts | 216° |
| 2026-05-05 15:55 | 0.74085 | -77.93165 | 33242 ft | 493 kts | 215° |
| 2026-05-05 15:55 | 0.68557 | -77.97232 | 33237 ft | 493 kts | 215° |
| 2026-05-05 15:56 | 0.63038 | -78.01309 | 33241 ft | 493 kts | 215° |
| 2026-05-05 15:56 | 0.57537 | -78.05402 | 33280 ft | 492 kts | 215° |
| 2026-05-05 15:57 | 0.52092 | -78.09473 | 33280 ft | 492 kts | 216° |
| 2026-05-05 15:57 | 0.46605 | -78.13564 | 33270 ft | 492 kts | 216° |
| 2026-05-05 15:58 | 0.41109 | -78.17654 | 33304 ft | 492 kts | 215° |
| 2026-05-05 15:58 | 0.35624 | -78.21736 | 33308 ft | 492 kts | 216° |
| 2026-05-05 15:59 | 0.30139 | -78.25815 | 33307 ft | 491 kts | 216° |
| 2026-05-05 15:59 | 0.24660 | -78.29897 | 33333 ft | 490 kts | 216° |
| 2026-05-05 16:00 | 0.19190 | -78.33969 | 33333 ft | 490 kts | 216° |
| 2026-05-05 16:00 | 0.13724 | -78.38033 | 33366 ft | 489 kts | 216° |
| 2026-05-05 16:01 | 0.08289 | -78.42079 | 33315 ft | 489 kts | 216° |
| 2026-05-05 16:01 | 0.02827 | -78.46150 | 33315 ft | 489 kts | 216° |
| 2026-05-05 16:02 | -0.02756 | -78.50007 | 33332 ft | 487 kts | 205° |
| 2026-05-05 16:02 | -0.05889 | -78.51283 | 33328 ft | 484 kts | 194° |
| 2026-05-05 16:02 | -0.09160 | -78.51987 | 33325 ft | 482 kts | 186° |
| 2026-05-05 16:03 | -0.15682 | -78.53014 | 33218 ft | 462 kts | 187° |
| 2026-05-05 16:03 | -0.18793 | -78.53513 | 32852 ft | 457 kts | 187° |
| 2026-05-05 16:03 | -0.21924 | -78.54017 | 32386 ft | 454 kts | 187° |
| 2026-05-05 16:03 | -0.25033 | -78.54519 | 31927 ft | 451 kts | 187° |
| 2026-05-05 16:04 | -0.28117 | -78.55015 | 31467 ft | 448 kts | 187° |
| 2026-05-05 16:04 | -0.31183 | -78.55509 | 31049 ft | 444 kts | 186° |
| 2026-05-05 16:04 | -0.34228 | -78.56000 | 30623 ft | 441 kts | 186° |
| 2026-05-05 16:04 | -0.37249 | -78.56487 | 30153 ft | 438 kts | 186° |
| 2026-05-05 16:05 | -0.40247 | -78.56969 | 29665 ft | 435 kts | 186° |
| 2026-05-05 16:05 | -0.43228 | -78.57448 | 29192 ft | 432 kts | 186° |
| 2026-05-05 16:05 | -0.46186 | -78.57923 | 28701 ft | 430 kts | 186° |
| 2026-05-05 16:05 | -0.49151 | -78.58397 | 28124 ft | 429 kts | 186° |
| 2026-05-05 16:06 | -0.52077 | -78.58867 | 27765 ft | 424 kts | 187° |
| 2026-05-05 16:06 | -0.54914 | -78.59639 | 27376 ft | 423 kts | 202° |
| 2026-05-05 16:06 | -0.57423 | -78.61160 | 26973 ft | 423 kts | 219° |
| 2026-05-05 16:06 | -0.59395 | -78.63326 | 26546 ft | 423 kts | 237° |
| 2026-05-05 16:07 | -0.60669 | -78.65957 | 26158 ft | 420 kts | 254° |
| 2026-05-05 16:07 | -0.61160 | -78.68814 | 25759 ft | 416 kts | 270° |
| 2026-05-05 16:07 | -0.60850 | -78.71657 | 25371 ft | 410 kts | 287° |
| 2026-05-05 16:07 | -0.59794 | -78.74276 | 24977 ft | 404 kts | 303° |
| 2026-05-05 16:08 | -0.58102 | -78.76473 | 24586 ft | 397 kts | 319° |
| 2026-05-05 16:08 | -0.55920 | -78.78113 | 24214 ft | 390 kts | 334° |
| 2026-05-05 16:08 | -0.53424 | -78.79120 | 23805 ft | 384 kts | 349° |
| 2026-05-05 16:08 | -0.50805 | -78.79458 | 23335 ft | 378 kts | 3° |
| 2026-05-05 16:09 | -0.48198 | -78.79299 | 22858 ft | 374 kts | 8° |
| 2026-05-05 16:09 | -0.45626 | -78.78961 | 22412 ft | 371 kts | 11° |
| 2026-05-05 16:09 | -0.43088 | -78.78523 | 21970 ft | 369 kts | 13° |
| 2026-05-05 16:09 | -0.40577 | -78.78050 | 21518 ft | 366 kts | 13° |
| 2026-05-05 16:10 | -0.38079 | -78.77582 | 21066 ft | 364 kts | 12° |
| 2026-05-05 16:10 | -0.35676 | -78.76975 | 20655 ft | 358 kts | 23° |
| 2026-05-05 16:10 | -0.33479 | -78.75858 | 20184 ft | 353 kts | 36° |
| 2026-05-05 16:10 | -0.31623 | -78.74282 | 19762 ft | 349 kts | 49° |
| 2026-05-05 16:11 | -0.30198 | -78.72347 | 19326 ft | 345 kts | 62° |
| 2026-05-05 16:11 | -0.29009 | -78.65486 | 18282 ft | 333 kts | 98° |
| 2026-05-05 16:12 | -0.29643 | -78.63268 | 17862 ft | 333 kts | 111° |
| 2026-05-05 16:12 | -0.32316 | -78.59538 | 17313 ft | 334 kts | 137° |
| 2026-05-05 16:13 | -0.38783 | -78.56912 | 17337 ft | 348 kts | 175° |
| 2026-05-05 16:13 | -0.41213 | -78.57008 | 17338 ft | 351 kts | 183° |
| 2026-05-05 16:13 | -0.43640 | -78.57307 | 17334 ft | 351 kts | 186° |
| 2026-05-05 16:14 | -0.48466 | -78.58165 | 17350 ft | 353 kts | 188° |
| 2026-05-05 16:14 | -0.53229 | -78.58953 | 16729 ft | 345 kts | 179° |
| 2026-05-05 16:15 | -0.57986 | -78.59097 | 15931 ft | 340 kts | 182° |
| 2026-05-05 16:15 | -0.62552 | -78.59476 | 14577 ft | 312 kts | 181° |
| 2026-05-05 16:16 | -0.66381 | -78.59761 | 13824 ft | 251 kts | 180° |
| 2026-05-05 16:16 | -0.69790 | -78.60012 | 13176 ft | 241 kts | 181° |
| 2026-05-05 16:17 | -0.72876 | -78.60244 | 12759 ft | 202 kts | 182° |
| 2026-05-05 16:17 | -0.74233 | -78.60345 | 12497 ft | 190 kts | 183° |
| 2026-05-05 16:18 | -0.76758 | -78.60533 | 11994 ft | 178 kts | 184° |
| 2026-05-05 16:18 | -0.77998 | -78.60626 | 11707 ft | 179 kts | 183° |
| 2026-05-05 16:18 | -0.80485 | -78.60812 | 11184 ft | 180 kts | 179° |
| 2026-05-05 16:19 | -0.81737 | -78.60906 | 10964 ft | 180 kts | 179° |
| 2026-05-05 16:19 | -0.82991 | -78.61000 | 10718 ft | 182 kts | 181° |
| 2026-05-05 16:19 | -0.85504 | -78.61188 | 10231 ft | 179 kts | 180° |
| 2026-05-05 16:20 | -0.87947 | -78.61370 | 9623 ft | 173 kts | 183° |
| 2026-05-05 16:20 | -0.90271 | -78.61571 | 9184 ft | 153 kts | 178° |
| 2026-05-05 16:21 | -0.91361 | -78.61630 | 9151 ft | 27 kts | 185° |
| 2026-05-05 16:22 | -0.91829 | -78.61716 | 9142 ft | 11 kts | 264° |
| 2026-05-05 16:22 | -0.91918 | -78.61762 | 9139 ft | 4 kts | 184° |
| 2026-05-05 16:23 | -0.91929 | -78.61825 | 9138 ft | 3 kts | 275° |
| 2026-05-05 16:23 | -0.91927 | -78.61847 | 9137 ft | 2 kts | 275° |
| 2026-05-05 16:23 | -0.91927 | -78.61848 | 9137 ft | 0 kts | 275° |